Time;durP1;ratioP1;P1;durP2;ratioP2;P2;SDS_P1;SDS_P2;PMS_P1;PMS_P2;Temp;Humidity;BMP_temperature;BMP_pressure;BME280_temperature;BME280_humidity;BME280_pressure;Samples;Min_cycle;Max_cycle;Signal;HPM_P1;HPM_P2
2022/08/10 00:00:27;;;;;;;3.17;1.58;;;16.10;99.90;;;;;;6251577;22;20020;-88
2022/08/10 00:02:56;;;;;;;3.88;1.90;;;16.10;99.90;;;;;;6251852;22;20026;-88
2022/08/10 00:05:24;;;;;;;3.20;1.35;;;16.00;99.90;;;;;;6279001;22;20086;-89
2022/08/10 00:07:50;;;;;;;3.65;2.00;;;16.00;99.90;;;;;;6225763;22;20028;-88
2022/08/10 00:10:18;;;;;;;3.88;1.88;;;16.00;99.90;;;;;;6251318;22;20074;-88
2022/08/10 00:12:44;;;;;;;3.10;1.40;;;16.00;99.90;;;;;;6251365;22;20016;-94
2022/08/10 00:15:13;;;;;;;4.88;1.75;;;15.90;99.90;;;;;;6225730;22;20054;-89
2022/08/10 00:17:39;;;;;;;5.40;1.85;;;15.90;99.90;;;;;;6226000;22;20049;-90
2022/08/10 00:20:05;;;;;;;3.40;1.48;;;15.90;99.90;;;;;;6278057;22;20070;-89
2022/08/10 00:22:31;;;;;;;;;;;15.90;99.90;;;;;;6226143;22;20099;-90
2022/08/10 00:24:57;;;;;;;3.25;1.60;;;15.90;99.90;;;;;;6277935;22;19950;-89
2022/08/10 00:27:24;;;;;;;3.70;1.50;;;15.90;99.90;;;;;;6251041;22;20090;-88
2022/08/10 00:29:50;;;;;;;3.85;1.67;;;15.80;99.90;;;;;;6251065;22;20020;-88
2022/08/10 00:32:16;;;;;;;3.28;1.35;;;15.80;99.90;;;;;;6251143;22;20315;-88
2022/08/10 00:34:41;;;;;;;2.40;1.08;;;15.80;99.90;;;;;;6251018;22;20076;-88
2022/08/10 00:37:07;;;;;;;1.90;0.80;;;15.70;99.90;;;;;;6250894;22;20066;-88
2022/08/10 00:39:33;;;;;;;2.10;0.90;;;15.70;99.90;;;;;;6250888;22;20341;-88
2022/08/10 00:41:58;;;;;;;1.85;0.70;;;15.70;99.90;;;;;;6250794;22;20016;-90
2022/08/10 00:44:24;;;;;;;2.97;1.00;;;15.60;99.90;;;;;;6225770;22;20047;-88
2022/08/10 00:46:50;;;;;;;2.03;0.90;;;15.60;99.90;;;;;;6250872;22;20627;-88
2022/08/10 00:49:15;;;;;;;3.35;1.38;;;15.50;99.90;;;;;;6250764;22;20675;-92
2022/08/10 00:51:41;;;;;;;2.45;1.10;;;15.60;99.90;;;;;;6278071;22;20012;-89
2022/08/10 00:54:08;;;;;;;3.63;1.55;;;15.60;99.90;;;;;;6250970;22;20088;-92
2022/08/10 00:56:35;;;;;;;2.47;1.00;;;15.60;99.90;;;;;;6225767;22;20110;-89
2022/08/10 00:59:01;;;;;;;3.47;1.38;;;15.60;99.90;;;;;;6250822;22;20054;-89
2022/08/10 01:01:26;;;;;;;2.15;0.85;;;15.60;99.90;;;;;;6250666;22;20012;-88
2022/08/10 01:03:52;;;;;;;1.70;0.70;;;15.50;99.90;;;;;;6225825;22;20022;-89
2022/08/10 01:06:35;;;;;;;1.20;0.55;;;15.50;99.90;;;;;;6225663;22;20019;-89
2022/08/10 01:09:22;;;;;;;1.52;0.70;;;15.50;99.90;;;;;;6251324;22;20020;-91
2022/08/10 01:12:05;;;;;;;1.40;0.65;;;15.50;99.90;;;;;;6225795;22;20094;-89
2022/08/10 01:14:49;;;;;;;1.58;0.68;;;15.50;99.90;;;;;;6251017;22;20019;-91
2022/08/10 01:17:26;;;;;;;1.42;0.70;;;15.50;99.90;;;;;;6225202;22;20360;-89
2022/08/10 01:20:29;;;;;;;1.98;0.63;;;15.50;99.90;;;;;;6251696;22;20020;-89
2022/08/10 01:23:21;;;;;;;2.10;0.60;;;15.40;99.90;;;;;;6226712;22;20016;-88
2022/08/10 01:26:17;;;;;;;1.55;0.60;;;15.40;99.90;;;;;;6226549;22;20051;-89
2022/08/10 01:29:12;;;;;;;1.98;0.70;;;15.40;99.90;;;;;;6250848;22;20103;-87
2022/08/10 01:31:42;;;;;;;1.83;0.75;;;15.40;99.90;;;;;;6225292;22;20030;-90
2022/08/10 01:34:24;;;;;;;1.52;0.60;;;15.30;99.90;;;;;;6250598;22;20512;-89
2022/08/10 01:37:00;;;;;;;2.28;0.63;;;15.30;99.90;;;;;;6225318;22;20348;-93
2022/08/10 01:39:31;;;;;;;1.83;0.73;;;15.30;99.90;;;;;;6250357;22;20020;-89
2022/08/10 01:42:00;;;;;;;2.17;0.90;;;15.30;99.90;;;;;;6250412;22;20012;-89
2022/08/10 01:44:34;;;;;;;2.15;0.95;;;15.30;99.90;;;;;;6250739;22;20022;-88
2022/08/10 01:50:19;;;;;;;2.35;0.98;;;15.30;99.90;;;;;;6277321;22;20521;-88
2022/08/10 01:52:47;;;;;;;3.58;1.20;;;15.30;99.90;;;;;;6277267;22;20515;-88
2022/08/10 01:55:15;;;;;;;2.22;0.80;;;15.40;99.90;;;;;;6276982;22;20399;-89
2022/08/10 01:57:43;;;;;;;3.35;1.17;;;15.40;99.90;;;;;;6250646;22;20061;-89
2022/08/10 02:00:10;;;;;;;3.55;1.35;;;15.40;99.90;;;;;;6277286;22;20023;-89
2022/08/10 02:02:38;;;;;;;4.53;1.25;;;15.50;99.90;;;;;;6277093;22;20015;-88
2022/08/10 02:05:05;;;;;;;3.28;1.27;;;15.50;99.90;;;;;;6250102;22;20020;-91
2022/08/10 02:07:32;;;;;;;3.50;1.48;;;15.50;99.90;;;;;;6277140;22;20065;-90
2022/08/10 02:10:01;;;;;;;5.55;1.90;;;15.50;99.90;;;;;;6277092;22;20090;-88
2022/08/10 02:12:30;;;;;;;4.82;1.90;;;15.50;99.90;;;;;;6249977;22;20041;-87
2022/08/10 02:15:02;;;;;;;4.75;2.03;;;15.50;99.90;;;;;;6250078;22;20019;-87
2022/08/10 02:17:34;;;;;;;4.80;1.90;;;15.60;99.90;;;;;;6250088;22;20065;-88
2022/08/10 02:20:06;;;;;;;4.65;2.25;;;15.60;99.90;;;;;;6224746;22;20054;-87
2022/08/10 02:22:32;;;;;;;4.85;2.30;;;15.60;99.90;;;;;;6249980;22;20050;-88
2022/08/10 02:25:00;;;;;;;3.75;1.60;;;15.60;99.90;;;;;;6277327;22;20015;-88
2022/08/10 02:27:27;;;;;;;4.40;1.92;;;15.70;99.90;;;;;;6224648;22;20046;-89
2022/08/10 02:29:54;;;;;;;3.72;1.58;;;15.60;99.90;;;;;;6277109;22;20065;-88
2022/08/10 02:32:22;;;;;;;3.97;1.70;;;15.60;99.90;;;;;;6224506;22;20026;-92
2022/08/10 02:34:49;;;;;;;4.63;1.83;;;15.60;99.90;;;;;;6224623;22;20061;-88
2022/08/10 02:37:20;;;;;;;4.05;1.60;;;15.60;99.90;;;;;;6250012;22;20015;-89
2022/08/10 02:39:46;;;;;;;3.30;1.35;;;15.60;99.90;;;;;;6277064;22;20046;-89
2022/08/10 02:42:35;;;;;;;4.05;1.92;;;15.60;99.90;;;;;;6224831;22;20457;-89
2022/08/10 02:45:59;;;;;;;4.57;1.83;;;15.60;99.90;;;;;;6276864;22;20034;-88
2022/08/10 02:48:38;;;;;;;2.90;1.10;;;15.60;99.90;;;;;;6099536;23;20022;-95
2022/08/10 02:51:10;;;;;;;3.75;1.27;;;15.50;99.90;;;;;;6075651;23;20028;-89
2022/08/10 02:53:44;;;;;;;2.90;1.40;;;15.50;99.90;;;;;;6164539;22;20381;-89
2022/08/10 02:56:15;;;;;;;3.63;1.27;;;15.40;99.90;;;;;;6277104;22;20015;-89
2022/08/10 02:58:47;;;;;;;2.33;1.02;;;15.40;99.90;;;;;;6249809;22;20445;-93
2022/08/10 03:01:20;;;;;;;2.08;0.85;;;15.30;99.90;;;;;;6224759;22;20020;-89
2022/08/10 03:03:58;;;;;;;3.08;0.80;;;15.30;99.90;;;;;;6249769;22;20022;-89
2022/08/10 03:06:29;;;;;;;2.75;1.00;;;15.10;99.90;;;;;;6276909;22;20038;-88
2022/08/10 03:08:57;;;;;;;2.22;0.80;;;15.00;99.90;;;;;;6249696;22;20444;-90
2022/08/10 03:11:27;;;;;;;2.33;0.90;;;14.90;99.90;;;;;;6249742;22;20452;-89
2022/08/10 03:13:56;;;;;;;3.00;1.30;;;14.80;99.90;;;;;;6249525;22;20053;-89
2022/08/10 03:16:23;;;;;;;3.35;1.25;;;14.80;99.90;;;;;;6224573;22;20020;-89
2022/08/10 03:18:51;;;;;;;2.60;0.98;;;14.70;99.90;;;;;;6224315;22;20022;-90
2022/08/10 03:21:19;;;;;;;3.33;1.38;;;14.70;99.90;;;;;;6249600;22;20015;-88
2022/08/10 03:23:45;;;;;;;1.90;0.88;;;14.70;99.90;;;;;;6276576;22;20020;-93
2022/08/10 03:26:12;;;;;;;2.25;0.93;;;14.70;99.90;;;;;;6276790;22;20012;-88
2022/08/10 03:28:38;;;;;;;2.88;1.20;;;14.70;99.90;;;;;;6276760;22;20019;-88
2022/08/10 03:31:04;;;;;;;3.13;1.15;;;14.70;99.90;;;;;;6224428;22;20399;-88
2022/08/10 03:33:34;;;;;;;2.80;1.40;;;14.70;99.90;;;;;;6224382;22;20023;-89
2022/08/10 03:36:00;;;;;;;2.58;1.15;;;14.70;99.90;;;;;;6249755;22;20046;-87
2022/08/10 03:38:26;;;;;;;1.73;0.88;;;14.70;99.90;;;;;;6249368;22;20023;-88
2022/08/10 03:40:54;;;;;;;2.58;1.10;;;14.70;99.90;;;;;;6249658;22;20088;-89
2022/08/10 03:43:21;;;;;;;2.72;1.17;;;14.60;99.90;;;;;;6276557;22;20022;-89
2022/08/10 03:45:56;;;;;;;2.15;0.82;;;14.60;99.90;;;;;;6276593;22;20024;-89
2022/08/10 03:48:28;;;;;;;2.70;1.10;;;14.60;99.90;;;;;;6249760;22;20345;-91
2022/08/10 03:50:55;;;;;;;2.38;0.95;;;14.50;99.90;;;;;;6224395;22;20449;-89
2022/08/10 03:53:22;;;;;;;2.22;0.98;;;14.50;99.90;;;;;;6276459;22;20016;-88
2022/08/10 03:55:49;;;;;;;2.97;1.15;;;14.50;99.90;;;;;;6224237;22;20047;-89
2022/08/10 03:58:15;;;;;;;2.85;1.33;;;14.50;99.90;;;;;;6249774;22;20020;-88
2022/08/10 04:00:41;;;;;;;2.95;1.33;;;14.50;99.90;;;;;;6224590;22;20345;-89
2022/08/10 04:03:09;;;;;;;3.03;1.20;;;14.60;99.90;;;;;;6249372;22;20016;-88
2022/08/10 04:05:35;;;;;;;4.65;1.63;;;14.60;99.90;;;;;;6276481;22;20022;-88
2022/08/10 04:08:01;;;;;;;4.30;1.65;;;14.60;99.90;;;;;;6249342;22;20016;-88
2022/08/10 04:10:27;;;;;;;6.65;2.50;;;14.60;99.90;;;;;;6249531;22;20085;-87
2022/08/10 04:12:53;;;;;;;4.03;1.73;;;14.60;99.90;;;;;;6248977;22;20023;-90
2022/08/10 04:15:19;;;;;;;5.25;2.28;;;14.70;99.90;;;;;;6276123;22;20497;-90
2022/08/10 04:17:44;;;;;;;5.33;2.20;;;14.80;99.90;;;;;;6250359;22;20062;-88
2022/08/10 04:20:38;;;;;;;5.28;1.90;;;14.90;99.90;;;;;;6225552;22;20019;-87
2022/08/10 04:23:26;;;;;;;4.28;2.10;;;14.90;99.90;;;;;;6250809;22;20077;-88
2022/08/10 04:25:52;;;;;;;3.70;1.98;;;15.10;99.90;;;;;;6250778;22;20012;-88
2022/08/10 04:28:18;;;;;;;5.35;2.00;;;15.10;99.90;;;;;;6250761;22;20020;-87
2022/08/10 04:30:45;;;;;;;4.72;2.30;;;15.10;99.90;;;;;;6278122;22;20019;-90
2022/08/10 04:33:14;;;;;;;4.93;2.17;;;15.10;99.90;;;;;;6251074;22;20019;-91
2022/08/10 04:35:42;;;;;;;5.13;2.42;;;15.10;99.90;;;;;;6250826;22;20106;-91
2022/08/10 04:38:08;;;;;;;4.88;2.08;;;15.10;99.90;;;;;;6250457;22;20022;-89
2022/08/10 04:40:34;;;;;;;4.90;2.15;;;15.20;99.90;;;;;;6250907;22;20073;-88
2022/08/10 04:43:05;;;;;;;5.13;2.10;;;15.20;99.90;;;;;;6251058;22;20011;-91
2022/08/10 04:45:31;;;;;;;5.60;2.67;;;15.20;99.90;;;;;;6250970;22;20392;-88
2022/08/10 04:47:56;;;;;;;5.72;2.42;;;15.30;99.90;;;;;;6250950;22;20065;-88
2022/08/10 04:50:22;;;;;;;4.80;2.10;;;15.30;99.90;;;;;;6250786;22;20011;-90
2022/08/10 04:52:48;;;;;;;5.88;2.65;;;15.30;99.90;;;;;;6278000;22;20018;-88
2022/08/10 04:55:14;;;;;;;5.15;2.30;;;15.30;99.90;;;;;;6250671;22;20098;-89
2022/08/10 04:57:40;;;;;;;4.32;2.13;;;15.30;99.90;;;;;;6277519;22;20030;-92
2022/08/10 05:00:06;;;;;;;6.65;2.13;;;15.30;99.90;;;;;;6250337;22;20437;-88
2022/08/10 05:02:32;;;;;;;;;;;15.30;99.90;;;;;;6277420;22;20085;-88
2022/08/10 05:04:58;;;;;;;5.25;2.78;;;15.40;99.90;;;;;;6250485;22;19915;-89
2022/08/10 05:07:24;;;;;;;6.90;3.20;;;15.40;99.90;;;;;;6250739;22;20015;-88
2022/08/10 05:09:50;;;;;;;5.88;2.90;;;15.50;99.90;;;;;;6250084;22;20012;-86
2022/08/10 05:12:16;;;;;;;;;;;15.50;99.90;;;;;;6277822;22;20488;-90
2022/08/10 05:14:42;;;;;;;6.55;3.10;;;15.60;99.90;;;;;;6277795;22;19942;-88
2022/08/10 05:17:07;;;;;;;7.57;3.67;;;15.70;99.90;;;;;;6250369;22;20015;-92
2022/08/10 05:19:33;;;;;;;6.25;3.05;;;15.80;99.90;;;;;;6277150;22;20456;-87
2022/08/10 05:21:59;;;;;;;5.93;2.97;;;15.90;99.90;;;;;;6250038;22;20043;-88
2022/08/10 05:24:24;;;;;;;7.03;3.40;;;16.00;99.90;;;;;;6250175;22;20016;-87
2022/08/10 05:26:50;;;;;;;7.73;3.50;;;16.00;99.90;;;;;;6250214;22;20246;-88
2022/08/10 05:29:16;;;;;;;6.95;3.67;;;16.10;99.90;;;;;;6277249;22;20121;-87
2022/08/10 05:31:42;;;;;;;7.90;3.05;;;16.10;99.90;;;;;;6250355;22;20026;-88
2022/08/10 05:34:07;;;;;;;6.30;3.05;;;16.20;99.90;;;;;;6250090;22;20088;-87
2022/08/10 05:36:34;;;;;;;7.95;3.72;;;16.20;99.90;;;;;;6277431;22;20468;-88
2022/08/10 05:39:00;;;;;;;;;;;16.30;99.90;;;;;;6277585;22;20019;-88
2022/08/10 05:41:27;;;;;;;6.38;2.88;;;16.30;99.90;;;;;;6277132;22;19925;-90
2022/08/10 05:43:53;;;;;;;6.65;3.38;;;16.40;99.90;;;;;;6250279;22;20016;-87
2022/08/10 05:46:19;;;;;;;;;;;16.50;99.90;;;;;;6277807;22;20027;-88
2022/08/10 05:48:44;;;;;;;7.45;3.60;;;16.60;99.90;;;;;;6277697;22;19915;-88
2022/08/10 05:51:11;;;;;;;6.15;2.83;;;16.70;99.90;;;;;;6250316;22;20040;-87
2022/08/10 05:53:37;;;;;;;6.65;3.00;;;16.80;99.90;;;;;;6277088;22;20019;-88
2022/08/10 05:56:05;;;;;;;6.70;3.08;;;16.90;99.90;;;;;;6276978;22;20445;-88
2022/08/10 05:58:32;;;;;;;6.13;2.85;;;17.10;99.90;;;;;;6249869;22;20065;-88
2022/08/10 06:00:59;;;;;;;6.47;3.08;;;17.30;99.90;;;;;;6276994;22;20088;-88
2022/08/10 06:03:32;;;;;;;5.30;2.65;;;17.90;99.90;;;;;;6276916;22;20341;-90
2022/08/10 06:05:59;;;;;;;5.82;2.95;;;18.40;99.90;;;;;;6249747;22;20019;-89
2022/08/10 06:08:31;;;;;;;6.85;2.90;;;18.90;99.90;;;;;;6249648;22;20019;-88
2022/08/10 06:11:00;;;;;;;6.70;3.17;;;19.70;99.90;;;;;;6277122;22;20028;-89
2022/08/10 06:16:14;;;;;;;5.63;2.45;;;20.80;99.90;;;;;;6276973;22;20057;-90
2022/08/10 06:18:42;;;;;;;5.10;2.58;;;21.60;99.90;;;;;;6249582;22;20433;-90
2022/08/10 06:21:10;;;;;;;5.93;2.63;;;22.20;99.90;;;;;;6276619;22;20018;-94
2022/08/10 06:23:38;;;;;;;4.35;2.20;;;22.70;99.90;;;;;;6249813;22;20391;-89
2022/08/10 06:26:05;;;;;;;3.60;1.75;;;23.10;99.90;;;;;;6224478;22;20030;-89
2022/08/10 06:28:37;;;;;;;6.07;2.42;;;23.40;99.90;;;;;;6249806;22;20055;-89
2022/08/10 06:31:05;;;;;;;4.57;2.35;;;23.60;99.90;;;;;;6276898;22;20047;-88
2022/08/10 06:33:33;;;;;;;4.53;1.90;;;23.90;99.90;;;;;;6249947;22;20015;-89
2022/08/10 06:36:00;;;;;;;4.43;1.65;;;24.30;99.90;;;;;;6276854;22;20024;-92
2022/08/10 06:38:30;;;;;;;3.10;1.70;;;24.70;99.90;;;;;;6249701;22;20058;-93
2022/08/10 06:40:58;;;;;;;3.63;1.63;;;25.00;99.90;;;;;;6276699;22;20046;-89
2022/08/10 06:43:26;;;;;;;3.90;1.50;;;24.80;99.90;;;;;;6276933;22;20445;-89
2022/08/10 06:45:59;;;;;;;3.42;1.40;;;24.40;99.90;;;;;;6277005;22;20460;-88
2022/08/10 06:48:44;;;;;;;2.97;1.45;;;24.10;99.90;;;;;;6249833;22;20019;-93
2022/08/10 06:51:21;;;;;;;5.38;1.50;;;24.00;99.90;;;;;;6250211;22;20019;-89
2022/08/10 06:53:51;;;;;;;3.42;1.48;;;23.90;99.90;;;;;;6224696;22;20023;-89
2022/08/10 06:56:26;;;;;;;3.53;1.40;;;23.90;99.90;;;;;;6277332;22;20054;-88
2022/08/10 06:59:01;;;;;;;3.28;1.52;;;24.00;99.90;;;;;;6250839;22;20020;-88
2022/08/10 07:01:31;;;;;;;3.08;1.10;;;24.00;99.90;;;;;;6224710;22;20019;-88
2022/08/10 07:04:01;;;;;;;2.28;1.02;;;23.60;99.90;;;;;;6249902;22;20090;-90
2022/08/10 07:06:28;;;;;;;3.40;1.27;;;23.30;99.90;;;;;;6250094;22;20012;-89
2022/08/10 07:08:56;;;;;;;2.03;1.05;;;23.50;99.90;;;;;;6224689;22;20020;-93
2022/08/10 07:11:39;;;;;;;1.80;0.90;;;23.70;99.90;;;;;;6277211;22;20019;-89
2022/08/10 07:14:07;;;;;;;2.17;1.02;;;24.20;99.90;;;;;;6276942;22;20012;-89
2022/08/10 07:16:35;;;;;;;2.25;0.90;;;24.80;99.90;;;;;;6224506;22;20015;-88
2022/08/10 07:19:02;;;;;;;2.45;0.90;;;25.00;99.90;;;;;;6249676;22;20093;-89
2022/08/10 07:21:29;;;;;;;3.92;1.15;;;25.10;99.90;;;;;;6249625;22;20016;-90
2022/08/10 07:23:57;;;;;;;2.97;1.00;;;25.10;99.90;;;;;;6249589;22;20746;-92
2022/08/10 07:26:27;;;;;;;2.25;1.00;;;25.00;99.60;;;;;;6249844;22;20099;-91
2022/08/10 07:28:54;;;;;;;2.50;1.00;;;24.90;99.00;;;;;;6276557;22;20393;-88
2022/08/10 07:31:21;;;;;;;2.58;0.90;;;24.50;99.20;;;;;;6277183;22;20016;-88
2022/08/10 07:33:52;;;;;;;2.67;0.95;;;23.90;99.90;;;;;;6224863;22;20016;-88
2022/08/10 07:36:20;;;;;;;2.30;1.25;;;23.30;99.90;;;;;;6276815;22;20051;-88
2022/08/10 07:38:48;;;;;;;2.55;0.93;;;22.80;99.90;;;;;;6249556;22;20372;-87
2022/08/10 07:41:16;;;;;;;2.30;1.00;;;22.40;99.90;;;;;;6224436;22;20098;-88
2022/08/10 07:43:44;;;;;;;2.55;1.08;;;22.10;99.90;;;;;;6277010;22;20019;-89
2022/08/10 07:46:13;;;;;;;2.40;1.17;;;21.90;99.90;;;;;;6224452;22;20517;-88
2022/08/10 07:48:46;;;;;;;3.03;1.23;;;21.70;99.90;;;;;;6249652;22;20026;-88
2022/08/10 07:51:13;;;;;;;2.38;1.00;;;21.60;99.90;;;;;;6224798;22;20016;-88
2022/08/10 07:53:52;;;;;;;4.57;0.90;;;21.40;99.90;;;;;;6251481;22;20058;-88
2022/08/10 07:56:22;;;;;;;3.28;0.90;;;21.40;99.90;;;;;;6252044;22;20487;-88
2022/08/10 07:58:52;;;;;;;1.83;1.05;;;21.30;99.90;;;;;;6251611;22;20086;-91
2022/08/10 08:01:22;;;;;;;2.42;1.08;;;21.30;99.90;;;;;;6251896;22;20024;-88
2022/08/10 08:03:49;;;;;;;2.45;1.17;;;21.20;99.90;;;;;;6278973;22;20043;-89
2022/08/10 08:06:16;;;;;;;3.15;0.95;;;21.20;99.90;;;;;;6278870;22;20011;-89
2022/08/10 08:08:44;;;;;;;1.88;0.90;;;21.20;99.90;;;;;;6251961;22;20513;-88
2022/08/10 08:11:12;;;;;;;2.55;1.10;;;21.20;99.90;;;;;;6279177;22;20437;-88
2022/08/10 08:13:39;;;;;;;2.75;0.90;;;21.20;99.90;;;;;;6227060;22;20024;-88
2022/08/10 08:16:05;;;;;;;3.35;1.73;;;21.20;99.90;;;;;;6279719;22;20012;-88
2022/08/10 08:18:34;;;;;;;2.45;0.90;;;21.20;99.90;;;;;;6254406;22;20023;-89
2022/08/10 08:21:01;;;;;;;2.97;1.27;;;21.20;99.90;;;;;;6252908;22;20020;-89
2022/08/10 08:23:29;;;;;;;2.00;1.00;;;21.30;99.90;;;;;;6254021;22;20019;-88
2022/08/10 08:25:55;;;;;;;2.40;1.00;;;21.20;99.90;;;;;;6252599;22;20015;-90
2022/08/10 08:28:22;;;;;;;1.77;0.85;;;21.30;99.90;;;;;;6251763;22;20007;-89
2022/08/10 08:30:48;;;;;;;2.22;1.10;;;21.30;99.90;;;;;;6251142;22;20046;-87
2022/08/10 08:33:16;;;;;;;3.13;1.27;;;21.30;99.90;;;;;;6251056;22;20381;-89
2022/08/10 08:35:43;;;;;;;2.90;1.25;;;21.30;99.90;;;;;;6251057;22;20034;-90
2022/08/10 08:38:12;;;;;;;2.95;1.30;;;21.30;99.90;;;;;;6225355;22;20044;-88
2022/08/10 08:40:42;;;;;;;2.58;1.10;;;21.40;99.90;;;;;;6250698;22;20022;-86
2022/08/10 08:43:20;;;;;;;2.70;1.05;;;21.40;99.90;;;;;;6250789;22;20456;-87
2022/08/10 08:45:49;;;;;;;2.85;1.48;;;21.40;99.90;;;;;;6250637;22;20081;-92
2022/08/10 08:48:30;;;;;;;3.17;1.08;;;21.40;99.90;;;;;;6250810;22;20444;-89
2022/08/10 08:51:18;;;;;;;2.90;0.90;;;21.40;99.90;;;;;;6277729;22;20095;-93
2022/08/10 08:54:15;;;;;;;3.00;1.42;;;21.50;99.90;;;;;;6249474;22;20019;-87
2022/08/10 08:56:58;;;;;;;2.25;0.98;;;21.50;99.90;;;;;;6225407;22;20077;-88
2022/08/10 08:59:44;;;;;;;3.38;0.98;;;21.60;99.90;;;;;;6225209;22;20019;-86
2022/08/10 09:02:42;;;;;;;4.63;1.23;;;21.60;99.90;;;;;;6250768;22;20114;-91
2022/08/10 09:05:20;;;;;;;2.15;1.00;;;21.60;99.90;;;;;;6250564;22;20020;-89
2022/08/10 09:08:21;;;;;;;2.50;1.20;;;21.70;99.90;;;;;;6277697;22;20016;-90
2022/08/10 09:11:01;;;;;;;2.38;1.20;;;21.70;99.90;;;;;;6250410;22;20094;-88
2022/08/10 09:13:38;;;;;;;3.45;1.10;;;21.70;99.90;;;;;;6277682;22;20027;-88
2022/08/10 09:16:03;;;;;;;1.80;1.10;;;21.70;99.90;;;;;;6250601;22;20023;-86
2022/08/10 09:18:53;;;;;;;3.38;1.10;;;21.80;99.90;;;;;;6277549;22;20016;-90
2022/08/10 09:21:28;;;;;;;2.10;0.85;;;21.80;99.90;;;;;;6250491;22;20019;-86
2022/08/10 09:24:14;;;;;;;4.68;1.50;;;21.90;99.90;;;;;;6277560;22;20062;-91
2022/08/10 09:26:49;;;;;;;2.75;1.20;;;21.90;99.90;;;;;;6225507;22;20012;-89
2022/08/10 09:29:24;;;;;;;1.95;0.88;;;21.90;99.90;;;;;;6250830;22;20020;-87
2022/08/10 09:32:14;;;;;;;2.55;1.02;;;21.90;99.90;;;;;;6250544;22;20012;-92
2022/08/10 09:35:05;;;;;;;2.60;1.20;;;22.00;99.90;;;;;;6250700;22;20012;-86
2022/08/10 09:38:01;;;;;;;2.92;1.20;;;22.00;99.90;;;;;;6250464;22;20031;-88
2022/08/10 09:40:57;;;;;;;2.40;0.70;;;22.00;99.90;;;;;;6261639;22;20026;-91
2022/08/10 09:43:39;;;;;;;3.00;1.00;;;22.10;99.90;;;;;;6250495;22;20027;-91
2022/08/10 09:46:17;;;;;;;4.30;1.20;;;22.10;99.90;;;;;;6277427;22;20023;-89
2022/08/10 09:48:49;;;;;;;3.08;1.00;;;22.20;99.90;;;;;;6277706;22;20020;-90
2022/08/10 09:51:39;;;;;;;2.70;1.02;;;22.20;99.90;;;;;;6277737;22;20398;-89
2022/08/10 09:54:28;;;;;;;2.90;1.00;;;22.20;99.90;;;;;;6277320;22;20019;-88
2022/08/10 09:57:23;;;;;;;2.63;1.15;;;22.20;99.90;;;;;;6250355;22;20019;-89
2022/08/10 10:00:11;;;;;;;2.08;1.00;;;22.30;99.90;;;;;;6250217;22;20023;-89
2022/08/10 10:03:05;;;;;;;2.60;1.20;;;22.40;99.90;;;;;;6250069;22;20019;-89
2022/08/10 10:05:54;;;;;;;2.67;0.82;;;22.40;99.90;;;;;;6277087;22;20019;-88
2022/08/10 10:08:39;;;;;;;1.88;0.90;;;22.50;99.90;;;;;;6277019;22;20433;-90
2022/08/10 10:11:19;;;;;;;1.75;0.75;;;22.50;99.90;;;;;;6250006;22;20035;-89
2022/08/10 10:14:28;;;;;;;2.90;1.20;;;22.60;99.90;;;;;;6249557;22;20019;-88
2022/08/10 10:17:19;;;;;;;2.22;0.80;;;22.60;99.90;;;;;;6224032;22;20471;-88
2022/08/10 10:20:19;;;;;;;1.50;0.70;;;22.70;99.90;;;;;;6276359;22;20016;-88
2022/08/10 10:23:24;;;;;;;2.45;0.88;;;22.70;99.90;;;;;;6249414;22;20074;-87
2022/08/10 10:26:02;;;;;;;2.95;0.95;;;22.70;99.90;;;;;;6249820;22;20087;-87
2022/08/10 10:28:55;;;;;;;2.30;0.85;;;22.90;99.90;;;;;;6250082;22;20027;-88
2022/08/10 10:31:37;;;;;;;1.98;0.80;;;22.90;99.90;;;;;;6249001;22;20015;-91
2022/08/10 10:34:14;;;;;;;2.97;0.82;;;22.90;99.90;;;;;;6248966;22;20314;-91
2022/08/10 10:36:58;;;;;;;1.80;0.73;;;23.00;99.90;;;;;;6248562;22;20019;-86
2022/08/10 10:39:53;;;;;;;1.30;0.60;;;23.10;99.90;;;;;;6224485;22;20094;-90
2022/08/10 10:43:03;;;;;;;2.15;0.65;;;23.20;99.90;;;;;;6224518;22;20015;-91
2022/08/10 10:46:00;;;;;;;1.70;0.68;;;23.30;99.90;;;;;;6168128;22;20020;-93
2022/08/10 10:49:07;;;;;;;1.20;0.60;;;23.40;99.90;;;;;;6225204;22;20016;-90
2022/08/10 10:51:53;;;;;;;1.00;0.65;;;23.70;99.80;;;;;;6224938;22;20023;-88
2022/08/10 10:54:31;;;;;;;0.65;0.43;;;23.80;99.30;;;;;;6250863;22;20461;-88
2022/08/10 10:57:21;;;;;;;1.52;0.57;;;23.90;99.10;;;;;;6222871;22;20591;-89
2022/08/10 11:05:25;;;;;;;0.93;0.60;;;24.20;98.00;;;;;;6276924;22;20023;-88
2022/08/10 11:08:15;;;;;;;0.80;0.60;;;24.30;97.40;;;;;;6239269;22;20016;-95
2022/08/10 11:11:09;;;;;;;1.70;0.63;;;24.40;97.10;;;;;;6225223;22;20020;-88
2022/08/10 11:14:04;;;;;;;2.53;0.60;;;24.50;96.70;;;;;;6075783;23;20483;-87
2022/08/10 11:16:57;;;;;;;1.52;0.50;;;24.60;96.60;;;;;;6224683;22;20047;-89
2022/08/10 11:20:06;;;;;;;1.55;0.57;;;24.70;95.70;;;;;;6225221;22;20555;-90
2022/08/10 11:22:56;;;;;;;1.90;0.88;;;24.80;96.10;;;;;;6076128;23;20022;-89
2022/08/10 11:25:30;;;;;;;0.95;0.50;;;24.90;95.80;;;;;;6225693;22;20011;-95
2022/08/10 11:27:59;;;;;;;1.50;0.70;;;25.00;95.60;;;;;;6226824;22;20073;-88
2022/08/10 11:30:32;;;;;;;2.15;0.68;;;25.10;95.30;;;;;;6227093;22;20102;-91
2022/08/10 11:33:24;;;;;;;1.83;0.60;;;25.20;95.30;;;;;;6227035;22;20488;-93
2022/08/10 11:36:17;;;;;;;1.38;0.73;;;25.20;95.00;;;;;;6227168;22;20038;-89
2022/08/10 11:39:07;;;;;;;1.27;0.63;;;25.40;94.90;;;;;;6226838;22;20012;-89
2022/08/10 11:41:57;;;;;;;1.35;0.70;;;25.50;94.70;;;;;;6227329;22;20019;-93
2022/08/10 11:44:45;;;;;;;1.35;0.70;;;25.60;94.40;;;;;;6227890;22;20047;-92
2022/08/10 11:47:56;;;;;;;2.15;0.60;;;25.70;94.00;;;;;;6226837;22;20094;-90
2022/08/10 11:50:33;;;;;;;1.25;0.70;;;25.70;94.00;;;;;;6226768;22;20094;-91
2022/08/10 11:53:04;;;;;;;1.88;0.50;;;25.80;93.90;;;;;;6226716;22;20012;-92
2022/08/10 11:55:31;;;;;;;2.28;0.70;;;25.90;93.70;;;;;;6226749;22;20077;-90
2022/08/10 12:01:14;;;;;;;1.77;0.80;;;26.10;93.30;;;;;;6251719;22;20055;-88
2022/08/10 12:03:42;;;;;;;1.80;0.60;;;26.20;93.40;;;;;;6226320;22;20012;-96
2022/08/10 12:06:12;;;;;;;1.73;0.98;;;26.20;92.70;;;;;;6227059;22;20449;-94
2022/08/10 12:08:41;;;;;;;1.35;0.70;;;26.30;93.10;;;;;;6227799;22;20020;-93
2022/08/10 12:11:13;;;;;;;1.65;0.70;;;26.40;92.80;;;;;;6226453;22;20019;-92
2022/08/10 12:17:57;;;;;;;1.80;0.77;;;26.30;92.00;;;;;;6276954;22;20010;-90
2022/08/10 12:20:31;;;;;;;1.35;0.70;;;26.40;92.10;;;;;;6226176;22;20016;-92
2022/08/10 12:23:12;;;;;;;1.40;0.80;;;26.40;92.00;;;;;;6226848;22;20094;-92
2022/08/10 12:25:48;;;;;;;1.48;0.70;;;26.50;91.60;;;;;;6250683;22;20099;-92
2022/08/10 12:28:48;;;;;;;1.23;0.60;;;26.50;91.60;;;;;;6226619;22;20015;-96
2022/08/10 12:31:41;;;;;;;1.98;0.70;;;26.50;91.40;;;;;;6228420;22;20011;-86
2022/08/10 12:34:15;;;;;;;0.90;0.60;;;26.50;90.80;;;;;;6226376;22;20067;-92
2022/08/10 12:36:46;;;;;;;1.13;0.60;;;26.60;90.90;;;;;;6226532;22;20018;-92
2022/08/10 12:39:20;;;;;;;0.95;0.50;;;26.70;90.60;;;;;;6225662;22;20327;-89
2022/08/10 12:41:55;;;;;;;1.55;0.65;;;26.70;90.30;;;;;;6226991;22;20065;-89
2022/08/10 12:44:32;;;;;;;1.52;0.77;;;26.80;90.10;;;;;;6223753;22;20019;-92
2022/08/10 12:47:04;;;;;;;1.27;0.70;;;26.80;90.00;;;;;;6280917;22;20473;-96
2022/08/10 12:49:48;;;;;;;2.22;0.80;;;26.80;89.50;;;;;;6226278;22;20016;-92
2022/08/10 12:52:54;;;;;;;2.50;0.60;;;26.80;89.20;;;;;;6227102;22;20022;-90
2022/08/10 12:55:24;;;;;;;1.02;0.57;;;26.90;89.30;;;;;;6228550;22;20016;-91
2022/08/10 12:57:55;;;;;;;1.35;0.60;;;26.90;87.90;;;;;;6226941;22;20019;-92
2022/08/10 13:00:33;;;;;;;1.08;0.60;;;26.90;87.40;;;;;;6227099;22;20015;-89
2022/08/10 13:03:00;;;;;;;2.88;0.70;;;26.80;86.30;;;;;;6252273;22;20045;-92
2022/08/10 13:05:27;;;;;;;1.55;0.80;;;26.80;86.80;;;;;;6222877;23;20524;-90
2022/08/10 13:11:00;;;;;;;2.85;0.70;;;26.80;86.20;;;;;;6245787;23;20027;-89
2022/08/10 13:13:32;;;;;;;2.65;0.70;;;26.80;86.30;;;;;;6221690;23;20323;-90
2022/08/10 13:18:45;;;;;;;1.30;0.60;;;26.80;85.40;;;;;;6266404;22;20024;-92
2022/08/10 13:21:34;;;;;;;1.60;0.50;;;26.80;85.80;;;;;;6225469;22;20053;-92
2022/08/10 13:24:32;;;;;;;1.23;0.65;;;26.90;85.90;;;;;;6250606;22;20051;-88
2022/08/10 13:27:46;;;;;;;2.45;0.77;;;26.90;84.30;;;;;;6225635;22;20449;-88
2022/08/10 13:30:15;;;;;;;1.55;0.60;;;27.00;84.50;;;;;;6076557;23;20021;-92
2022/08/10 13:33:10;;;;;;;0.98;0.68;;;27.00;84.80;;;;;;6101167;23;20101;-89
2022/08/10 13:35:42;;;;;;;2.35;0.70;;;27.00;84.50;;;;;;6191117;22;20027;-88
2022/08/10 13:38:12;;;;;;;1.60;0.65;;;27.00;83.50;;;;;;6225581;22;20077;-90
2022/08/10 13:43:15;;;;;;;1.20;0.80;;;26.90;83.50;;;;;;6246534;22;20047;-90
2022/08/10 13:45:43;;;;;;;1.05;0.60;;;26.80;84.00;;;;;;6221014;23;20031;-86
2022/08/10 13:48:18;;;;;;;1.30;0.50;;;26.90;83.60;;;;;;6221244;23;20016;-87
2022/08/10 13:50:46;;;;;;;1.83;0.70;;;26.90;83.40;;;;;;6220429;23;20099;-87